Terminal Aerodrome Forecast
Issued by NWS

Home | Current Version | Previous Version | Graphics & Text | Print | Product List | Glossary On
Versions: 1 2 3 4 5 6 7 8 9 10 11 12 13
000
FTUS43 KFGF 241733
TAFBJI
TAF
KBJI 241733Z 2418/2518 30012KT P6SM VCSH BKN040
     FM242200 31013KT P6SM -SHRA BKN015
      TEMPO 2500/2504 2SM -DZ BR BKN007
     FM250500 31009KT P6SM OVC015
     FM250700 31011KT P6SM BKN020
     FM250900 31010KT P6SM BKN015=

USA.gov is the U.S. government's official web portal to all federal, state and local government web resources and services.